Time;durP1;ratioP1;P1;durP2;ratioP2;P2;SDS_P1;SDS_P2;PMS_P1;PMS_P2;Temp;Humidity;BMP_temperature;BMP_pressure;BME280_temperature;BME280_humidity;BME280_pressure;Samples;Min_cycle;Max_cycle;Signal;HPM_P1;HPM_P2
2022/05/01 00:00:27;;;;;;;4.70;3.27;;;10.60;61.30;;;;;;4993255;28;20730;-66
2022/05/01 00:02:54;;;;;;;4.00;3.10;;;10.60;60.30;;;;;;4993221;28;20581;-66
2022/05/01 00:05:21;;;;;;;3.70;2.70;;;10.60;61.20;;;;;;4992296;28;20204;-66
2022/05/01 00:07:48;;;;;;;3.47;2.77;;;10.60;63.40;;;;;;4991967;28;20668;-65
2022/05/01 00:10:16;;;;;;;3.57;2.60;;;10.60;59.00;;;;;;4992148;28;20189;-66
2022/05/01 00:12:43;;;;;;;4.27;2.87;;;10.60;64.70;;;;;;4991827;28;20228;-66
2022/05/01 00:15:10;;;;;;;7.43;2.83;;;10.60;66.40;;;;;;4992397;28;20209;-66
2022/05/01 00:17:37;;;;;;;6.63;2.97;;;10.60;67.10;;;;;;4991793;28;20197;-66
2022/05/01 00:20:06;;;;;;;5.80;2.60;;;10.50;69.30;;;;;;4992884;28;20224;-66
2022/05/01 00:22:33;;;;;;;4.47;2.67;;;10.50;69.00;;;;;;4992267;28;20205;-66
2022/05/01 00:24:59;;;;;;;5.53;3.13;;;10.60;63.20;;;;;;4991462;28;20571;-65
2022/05/01 00:27:28;;;;;;;4.13;2.67;;;10.50;65.60;;;;;;4991767;28;20216;-66
2022/05/01 00:29:56;;;;;;;4.37;3.07;;;10.50;62.60;;;;;;4991246;28;20189;-66
2022/05/01 00:32:23;;;;;;;5.33;2.87;;;10.50;65.60;;;;;;4992784;28;20582;-65
2022/05/01 00:37:34;;;;;;;4.70;2.80;;;10.50;68.50;;;;;;4987471;28;20215;-66
2022/05/01 00:40:01;;;;;;;3.40;2.70;;;10.40;68.70;;;;;;4992713;28;20232;-66
2022/05/01 00:42:29;;;;;;;4.87;2.63;;;10.50;70.60;;;;;;4991884;28;20220;-66
2022/05/01 00:44:56;;;;;;;4.10;2.60;;;10.40;67.90;;;;;;4991756;28;20201;-66
2022/05/01 00:47:23;;;;;;;4.67;2.80;;;10.40;66.20;;;;;;4992436;28;20347;-66
2022/05/01 00:49:50;;;;;;;3.80;2.83;;;10.40;68.50;;;;;;4991335;28;20193;-66
2022/05/01 00:52:19;;;;;;;3.97;2.67;;;10.40;67.90;;;;;;4992433;28;20678;-66
2022/05/01 00:54:47;;;;;;;3.90;2.97;;;10.40;71.00;;;;;;4991418;28;20271;-66
2022/05/01 00:57:15;;;;;;;3.90;2.30;;;10.40;69.00;;;;;;4991400;28;20638;-66
2022/05/01 00:59:45;;;;;;;6.57;2.83;;;10.40;72.60;;;;;;4992447;28;20220;-66
2022/05/01 01:02:12;;;;;;;7.47;3.70;;;10.40;73.00;;;;;;4991897;28;20205;-66
2022/05/01 01:04:39;;;;;;;3.23;2.83;;;10.30;68.70;;;;;;4992148;28;20743;-66
2022/05/01 01:07:06;;;;;;;4.03;3.00;;;10.30;67.30;;;;;;4992285;28;20220;-66
2022/05/01 01:09:35;;;;;;;3.97;2.87;;;10.40;68.40;;;;;;4991564;28;20200;-65
2022/05/01 01:14:48;;;;;;;4.30;2.67;;;10.40;72.60;;;;;;4983512;28;20224;-66
2022/05/01 01:17:14;;;;;;;6.70;3.50;;;10.40;71.90;;;;;;4980578;28;20197;-66
2022/05/01 01:19:41;;;;;;;6.37;3.00;;;10.30;69.60;;;;;;4992505;28;20698;-66
2022/05/01 01:22:10;;;;;;;5.03;2.80;;;10.40;72.10;;;;;;4995141;28;20197;-65
2022/05/01 01:24:39;;;;;;;4.23;3.10;;;10.30;69.70;;;;;;4994605;28;20284;-65
2022/05/01 01:27:07;;;;;;;3.97;2.60;;;10.30;68.20;;;;;;5003429;28;20227;-66
2022/05/01 01:32:20;;;;;;;6.07;2.73;;;10.30;70.50;;;;;;4990885;28;20208;-65
2022/05/01 01:34:50;;;;;;;5.20;2.90;;;10.30;73.20;;;;;;4995143;28;20205;-65
2022/05/01 01:37:20;;;;;;;6.13;3.03;;;10.20;69.50;;;;;;4996944;28;20208;-66
2022/05/01 01:39:47;;;;;;;5.93;3.13;;;10.20;67.50;;;;;;5007455;28;20226;-65
2022/05/01 01:42:16;;;;;;;5.97;3.17;;;10.20;68.80;;;;;;5006756;28;20643;-65
2022/05/01 01:44:43;;;;;;;5.10;3.20;;;10.20;71.40;;;;;;4994518;28;20564;-66
2022/05/01 01:47:13;;;;;;;5.60;3.00;;;10.20;70.90;;;;;;4995767;28;20193;-65
2022/05/01 01:49:40;;;;;;;3.73;2.93;;;10.20;71.10;;;;;;4994037;28;20201;-66
2022/05/01 01:52:07;;;;;;;3.20;2.77;;;10.20;72.90;;;;;;4975843;28;20646;-65
2022/05/01 01:54:35;;;;;;;5.23;3.20;;;10.20;71.70;;;;;;4991280;28;20224;-66
2022/05/01 01:57:02;;;;;;;4.53;3.20;;;10.10;69.60;;;;;;4990087;28;20198;-66
2022/05/01 01:59:29;;;;;;;6.03;3.10;;;10.20;71.30;;;;;;4986339;28;20316;-66
2022/05/01 02:01:56;;;;;;;6.07;3.30;;;10.20;72.10;;;;;;4993900;28;20197;-65
2022/05/01 02:04:23;;;;;;;5.27;3.20;;;10.10;70.30;;;;;;4991453;28;20298;-66
2022/05/01 02:06:50;;;;;;;5.50;3.03;;;10.00;69.60;;;;;;4994327;28;20648;-65
2022/05/01 02:09:18;;;;;;;5.50;2.90;;;10.00;70.60;;;;;;4994549;28;20193;-65
2022/05/01 02:11:46;;;;;;;4.87;3.00;;;9.90;70.90;;;;;;4993892;28;20728;-66
2022/05/01 02:14:13;;;;;;;3.77;3.33;;;10.00;70.10;;;;;;4994598;28;20213;-66
2022/05/01 02:16:40;;;;;;;6.33;3.13;;;10.00;69.40;;;;;;4994081;28;20205;-66
2022/05/01 02:19:07;;;;;;;3.80;3.00;;;10.00;69.80;;;;;;4993922;28;20590;-66
2022/05/01 02:21:37;;;;;;;4.33;3.30;;;10.00;72.80;;;;;;4994468;28;20212;-66
2022/05/01 02:24:08;;;;;;;5.20;3.20;;;10.00;77.00;;;;;;4994155;28;20205;-66
2022/05/01 02:26:36;;;;;;;4.33;3.10;;;10.00;74.70;;;;;;4993234;28;20290;-66
2022/05/01 02:29:09;;;;;;;4.70;2.90;;;10.00;73.50;;;;;;4994064;28;20652;-66
2022/05/01 02:31:37;;;;;;;4.10;3.33;;;10.00;74.30;;;;;;4994310;28;20201;-66
2022/05/01 02:34:04;;;;;;;3.87;3.20;;;9.90;71.90;;;;;;4993622;28;20297;-65
2022/05/01 02:36:31;;;;;;;5.90;3.33;;;9.90;75.90;;;;;;4992354;28;20197;-66
2022/05/01 02:38:58;;;;;;;4.03;3.10;;;10.00;79.20;;;;;;4994495;28;20215;-66
2022/05/01 02:41:25;;;;;;;6.67;3.00;;;9.90;79.10;;;;;;4993734;28;20205;-65
2022/05/01 02:43:52;;;;;;;3.27;2.80;;;9.90;83.70;;;;;;4992949;28;20213;-66
2022/05/01 02:46:21;;;;;;;7.23;3.47;;;9.90;85.40;;;;;;4993586;28;20225;-65
2022/05/01 02:48:47;;;;;;;3.70;2.90;;;9.90;84.80;;;;;;4986302;28;20300;-65
2022/05/01 02:51:14;;;;;;;5.17;3.10;;;9.90;82.20;;;;;;4993596;28;20272;-65
2022/05/01 02:53:41;;;;;;;6.50;3.23;;;9.90;85.90;;;;;;4994038;28;20211;-65
2022/05/01 02:56:08;;;;;;;5.33;3.20;;;9.80;90.20;;;;;;4992260;28;20197;-65
2022/05/01 02:58:35;;;;;;;3.50;3.07;;;9.70;87.60;;;;;;4993812;28;20209;-65
2022/05/01 03:01:01;;;;;;;7.73;2.97;;;9.70;84.70;;;;;;4992558;28;20216;-65
2022/05/01 03:03:30;;;;;;;9.97;2.97;;;9.70;84.40;;;;;;4993122;28;20213;-65
2022/05/01 03:05:58;;;;;;;4.87;3.10;;;9.60;82.00;;;;;;4992855;28;20296;-66
2022/05/01 03:08:26;;;;;;;3.67;3.37;;;9.60;84.80;;;;;;4988247;28;20205;-66
2022/05/01 03:10:53;;;;;;;4.33;3.20;;;9.60;84.50;;;;;;4993732;28;20205;-66
2022/05/01 03:13:19;;;;;;;4.60;3.20;;;9.60;85.10;;;;;;4993630;28;20215;-66
2022/05/01 03:15:46;;;;;;;6.27;3.50;;;9.60;87.10;;;;;;4991980;28;20199;-66
2022/05/01 03:23:45;;;;;;;4.23;3.07;;;9.60;89.20;;;;;;4993726;28;20344;-65
2022/05/01 03:26:12;;;;;;;5.90;3.30;;;9.60;91.80;;;;;;4992037;28;20205;-66
2022/05/01 03:28:39;;;;;;;4.07;3.03;;;9.60;91.00;;;;;;4992612;28;20201;-66
2022/05/01 03:31:09;;;;;;;6.00;3.83;;;9.60;91.50;;;;;;4992957;28;20692;-65
2022/05/01 03:33:37;;;;;;;7.97;3.60;;;9.60;93.10;;;;;;4993976;28;20704;-65
2022/05/01 03:36:06;;;;;;;8.37;3.53;;;9.60;94.10;;;;;;4991715;28;20197;-66
2022/05/01 03:38:35;;;;;;;7.57;3.50;;;9.50;94.50;;;;;;4992565;28;20224;-65
2022/05/01 03:41:02;;;;;;;4.93;3.20;;;9.50;95.50;;;;;;4992065;28;20372;-65
2022/05/01 03:43:29;;;;;;;6.87;3.67;;;9.60;97.40;;;;;;4992787;28;20204;-66
2022/05/01 03:45:56;;;;;;;6.13;3.10;;;9.60;97.70;;;;;;4992085;28;20228;-66
2022/05/01 03:48:23;;;;;;;5.87;3.57;;;9.50;99.50;;;;;;4992625;28;20212;-65
2022/05/01 03:50:52;;;;;;;6.73;3.53;;;9.50;97.40;;;;;;4992258;28;20196;-66
2022/05/01 03:53:21;;;;;;;5.77;3.93;;;9.40;97.90;;;;;;4992684;28;20205;-66
2022/05/01 03:55:48;;;;;;;6.83;4.07;;;9.40;98.20;;;;;;4992498;28;20576;-65
2022/05/01 03:58:16;;;;;;;5.03;3.40;;;9.40;98.10;;;;;;4992563;28;20767;-65
2022/05/01 04:00:44;;;;;;;6.67;3.60;;;9.30;98.90;;;;;;4992986;28;20221;-66
2022/05/01 04:03:11;;;;;;;6.87;3.80;;;9.40;99.90;;;;;;4992834;28;20299;-65
2022/05/01 04:05:40;;;;;;;8.23;3.90;;;9.40;99.90;;;;;;4992257;28;20201;-65
2022/05/01 04:08:08;;;;;;;6.53;3.80;;;9.40;99.90;;;;;;4991426;28;20220;-65
2022/05/01 04:10:37;;;;;;;4.37;3.50;;;9.50;99.90;;;;;;4992340;28;20223;-65
2022/05/01 04:13:03;;;;;;;6.00;3.60;;;9.50;99.90;;;;;;4992439;28;20204;-66
2022/05/01 04:15:30;;;;;;;5.13;3.30;;;9.50;99.90;;;;;;4992605;28;20205;-66
2022/05/01 04:17:58;;;;;;;6.20;3.77;;;9.60;99.90;;;;;;4991077;28;20401;-66
2022/05/01 04:20:26;;;;;;;6.10;3.70;;;9.60;99.90;;;;;;4991543;28;20675;-65
2022/05/01 04:22:53;;;;;;;4.50;3.70;;;9.60;99.90;;;;;;4992179;28;20207;-66
2022/05/01 04:25:22;;;;;;;4.20;3.50;;;9.50;99.90;;;;;;4992167;28;20231;-65
2022/05/01 04:27:52;;;;;;;6.77;4.20;;;9.50;99.90;;;;;;4991473;28;20209;-65
2022/05/01 04:30:20;;;;;;;8.17;4.33;;;9.50;99.90;;;;;;4991930;28;20197;-66
2022/05/01 04:32:49;;;;;;;7.03;4.10;;;9.50;99.90;;;;;;4992301;28;20205;-66
2022/05/01 04:35:21;;;;;;;13.20;4.97;;;9.50;99.90;;;;;;4992049;28;20228;-65
2022/05/01 04:37:48;;;;;;;11.67;5.47;;;9.40;99.90;;;;;;4991101;28;20201;-66
2022/05/01 04:40:15;;;;;;;13.57;7.03;;;9.40;99.90;;;;;;4991510;28;20217;-66
2022/05/01 04:42:42;;;;;;;7.67;4.80;;;9.50;99.90;;;;;;4992372;28;20563;-66
2022/05/01 04:45:11;;;;;;;9.57;4.90;;;9.40;99.90;;;;;;4991196;28;20193;-65
2022/05/01 04:47:39;;;;;;;8.83;5.10;;;9.40;99.90;;;;;;4991938;28;20244;-66
2022/05/01 04:50:07;;;;;;;7.23;4.70;;;9.40;99.90;;;;;;4989231;28;20209;-66
2022/05/01 04:52:36;;;;;;;10.00;4.80;;;9.40;99.90;;;;;;4986138;28;20223;-66
2022/05/01 04:55:04;;;;;;;7.13;5.00;;;9.50;99.90;;;;;;4989435;28;20263;-66
2022/05/01 04:57:31;;;;;;;7.90;5.00;;;9.40;99.90;;;;;;4993044;28;20212;-65
2022/05/01 05:00:00;;;;;;;8.27;5.37;;;9.30;99.90;;;;;;4993671;28;20308;-66
2022/05/01 05:02:39;;;;;;;9.07;4.53;;;9.30;99.90;;;;;;4995210;28;20207;-66
2022/05/01 05:05:08;;;;;;;8.00;4.67;;;9.30;99.90;;;;;;4994284;28;20566;-66
2022/05/01 05:07:35;;;;;;;8.27;5.00;;;9.20;99.90;;;;;;4995136;28;20212;-66
2022/05/01 05:10:03;;;;;;;8.30;5.53;;;9.00;99.90;;;;;;4995541;28;20630;-66
2022/05/01 05:12:30;;;;;;;7.43;4.70;;;9.10;99.90;;;;;;4995043;28;20204;-66
2022/05/01 05:15:00;;;;;;;9.73;5.40;;;9.00;99.90;;;;;;4993946;28;20212;-66
2022/05/01 05:17:29;;;;;;;6.67;5.00;;;9.10;99.90;;;;;;4990899;28;20575;-65
2022/05/01 05:19:57;;;;;;;7.47;5.03;;;9.10;99.90;;;;;;4990158;28;20224;-66
2022/05/01 05:22:24;;;;;;;8.83;4.87;;;9.00;99.90;;;;;;4989114;28;20536;-66
2022/05/01 05:24:51;;;;;;;7.70;5.07;;;9.10;99.90;;;;;;4992107;28;20209;-67
2022/05/01 05:27:20;;;;;;;7.83;4.97;;;9.00;99.90;;;;;;4988631;28;20208;-67
2022/05/01 05:29:47;;;;;;;7.93;5.07;;;9.10;99.90;;;;;;4992750;28;20660;-67
2022/05/01 05:32:14;;;;;;;10.57;4.97;;;9.20;99.90;;;;;;4992379;28;20220;-65
2022/05/01 05:34:40;;;;;;;9.63;5.37;;;9.20;99.90;;;;;;4991474;28;20211;-66
2022/05/01 05:37:09;;;;;;;6.43;4.53;;;9.20;99.90;;;;;;4992517;28;20224;-67
2022/05/01 05:39:36;;;;;;;9.00;5.20;;;9.20;99.90;;;;;;4996417;28;20459;-66
2022/05/01 05:42:03;;;;;;;10.83;5.53;;;9.30;99.90;;;;;;4994281;28;20601;-66
2022/05/01 05:44:30;;;;;;;9.50;4.90;;;9.40;99.90;;;;;;4991501;28;20209;-66
2022/05/01 05:46:56;;;;;;;11.27;6.63;;;9.50;99.90;;;;;;4992473;28;20224;-66
2022/05/01 05:49:23;;;;;;;9.07;5.40;;;9.30;99.90;;;;;;4991736;28;20193;-67
2022/05/01 05:51:50;;;;;;;8.33;5.30;;;9.30;99.90;;;;;;4992218;28;20204;-66
2022/05/01 05:54:18;;;;;;;9.17;5.40;;;9.40;99.90;;;;;;4993052;28;20201;-66
2022/05/01 05:56:45;;;;;;;9.10;4.97;;;9.30;99.90;;;;;;4991664;28;20223;-66
2022/05/01 05:59:12;;;;;;;9.27;4.70;;;9.50;99.90;;;;;;4991631;28;20671;-66
2022/05/01 06:01:39;;;;;;;8.50;5.07;;;9.50;99.90;;;;;;4992853;28;20233;-66
2022/05/01 06:04:06;;;;;;;8.40;5.47;;;9.50;99.90;;;;;;4991452;28;20211;-66
2022/05/01 06:06:33;;;;;;;7.53;4.77;;;9.50;99.90;;;;;;4990982;28;20209;-65
2022/05/01 06:09:00;;;;;;;7.40;5.00;;;9.60;99.90;;;;;;4993165;28;20296;-65
2022/05/01 06:11:28;;;;;;;7.80;5.53;;;9.70;99.90;;;;;;4992318;28;20197;-66
2022/05/01 06:13:55;;;;;;;7.70;5.20;;;9.70;99.90;;;;;;4994990;28;20303;-67
2022/05/01 06:16:22;;;;;;;10.70;5.00;;;9.70;99.90;;;;;;4993886;28;20197;-67
2022/05/01 06:18:49;;;;;;;8.53;5.40;;;9.70;99.90;;;;;;4993101;28;20205;-65
2022/05/01 06:21:16;;;;;;;9.00;5.27;;;9.80;99.90;;;;;;4993158;28;20220;-66
2022/05/01 06:23:45;;;;;;;9.93;5.57;;;9.80;99.90;;;;;;4991781;28;20201;-66
2022/05/01 06:26:12;;;;;;;8.40;5.00;;;9.80;99.90;;;;;;4981673;28;20212;-75
2022/05/01 06:28:41;;;;;;;7.73;5.20;;;9.80;99.90;;;;;;4985615;28;20216;-75
2022/05/01 06:31:08;;;;;;;9.37;5.70;;;9.80;99.90;;;;;;4991688;28;20200;-74
2022/05/01 06:33:36;;;;;;;7.27;4.63;;;9.90;99.90;;;;;;4991491;28;20648;-75
2022/05/01 06:36:03;;;;;;;6.53;4.57;;;9.80;99.90;;;;;;4990519;28;20206;-74
2022/05/01 06:38:30;;;;;;;10.90;5.37;;;9.80;99.90;;;;;;4991801;28;20710;-76
2022/05/01 06:40:57;;;;;;;8.73;5.00;;;9.90;99.90;;;;;;4990857;28;20683;-75
2022/05/01 06:43:27;;;;;;;10.07;5.43;;;9.90;99.90;;;;;;4989450;28;20573;-76
2022/05/01 06:45:55;;;;;;;7.33;5.43;;;9.80;99.90;;;;;;4991112;28;20201;-74
2022/05/01 06:48:22;;;;;;;10.17;5.13;;;9.90;99.90;;;;;;4991636;28;20209;-73
2022/05/01 06:50:49;;;;;;;9.50;5.10;;;9.80;99.90;;;;;;4990425;28;20252;-76
2022/05/01 06:53:16;;;;;;;9.63;5.37;;;9.90;99.90;;;;;;4991470;28;20211;-76
2022/05/01 06:55:43;;;;;;;9.90;5.83;;;10.00;99.90;;;;;;4988356;28;20208;-76
2022/05/01 06:58:10;;;;;;;12.47;5.33;;;10.00;99.90;;;;;;4986420;28;20205;-75
2022/05/01 07:00:37;;;;;;;9.10;5.37;;;9.90;99.90;;;;;;4988774;28;20601;-75
2022/05/01 07:03:05;;;;;;;9.93;5.43;;;9.90;99.90;;;;;;4986371;28;20216;-75
2022/05/01 07:05:32;;;;;;;10.20;5.87;;;10.00;99.90;;;;;;4989862;28;20200;-74
2022/05/01 07:07:59;;;;;;;11.53;6.23;;;10.00;99.90;;;;;;4991218;28;20213;-74
2022/05/01 07:10:26;;;;;;;12.83;5.80;;;10.10;99.90;;;;;;4987779;28;20208;-75
2022/05/01 07:12:52;;;;;;;10.17;5.70;;;10.00;99.90;;;;;;4988686;28;20498;-75
2022/05/01 07:15:19;;;;;;;10.57;6.23;;;10.10;99.90;;;;;;4992161;28;20204;-75
2022/05/01 07:17:46;;;;;;;12.40;6.10;;;10.20;99.90;;;;;;4987023;28;20219;-75
2022/05/01 07:20:14;;;;;;;12.37;6.67;;;10.20;99.90;;;;;;4987382;28;20205;-76
2022/05/01 07:22:41;;;;;;;11.63;6.13;;;10.30;99.90;;;;;;4987331;28;20296;-76
2022/05/01 07:25:09;;;;;;;13.97;6.47;;;10.20;99.90;;;;;;4984627;28;20205;-75
2022/05/01 07:27:36;;;;;;;10.20;5.47;;;10.20;99.90;;;;;;4990309;28;20224;-76
2022/05/01 07:30:03;;;;;;;13.33;6.30;;;10.30;99.90;;;;;;4989684;28;20212;-78
2022/05/01 07:32:30;;;;;;;9.83;6.13;;;10.50;99.90;;;;;;4989444;28;20244;-76
2022/05/01 07:34:57;;;;;;;11.73;6.13;;;10.60;99.90;;;;;;4989717;28;20215;-76
2022/05/01 07:37:26;;;;;;;15.47;6.87;;;10.60;99.90;;;;;;4990075;28;20207;-76
2022/05/01 07:39:54;;;;;;;11.63;6.40;;;10.70;99.90;;;;;;4991699;28;20213;-76
2022/05/01 07:42:23;;;;;;;10.37;5.90;;;10.70;99.90;;;;;;4989165;28;20220;-76
2022/05/01 07:44:50;;;;;;;12.00;6.63;;;10.70;99.90;;;;;;4991372;28;20558;-75
2022/05/01 07:47:17;;;;;;;12.17;6.30;;;10.60;99.90;;;;;;4991741;28;20211;-75
2022/05/01 07:49:45;;;;;;;13.70;7.00;;;10.50;99.90;;;;;;4992172;28;20212;-75
2022/05/01 07:52:11;;;;;;;11.00;6.37;;;10.60;99.90;;;;;;4991248;28;20648;-76
2022/05/01 07:54:40;;;;;;;11.10;6.13;;;10.80;99.90;;;;;;4989765;28;20227;-76
2022/05/01 07:57:08;;;;;;;10.07;5.83;;;10.80;99.90;;;;;;4989901;28;20201;-75
2022/05/01 07:59:35;;;;;;;12.50;5.90;;;10.80;99.90;;;;;;4990242;28;20213;-76
2022/05/01 08:02:02;;;;;;;13.40;6.00;;;10.80;99.90;;;;;;4989690;28;20585;-75
2022/05/01 08:04:28;;;;;;;12.70;6.40;;;10.80;99.90;;;;;;4990372;28;20228;-76
2022/05/01 08:06:56;;;;;;;12.03;6.37;;;10.70;99.90;;;;;;4990251;28;20224;-76
2022/05/01 08:09:22;;;;;;;14.00;6.57;;;10.70;99.90;;;;;;4991555;28;20201;-76
2022/05/01 08:11:51;;;;;;;11.70;6.70;;;10.80;99.90;;;;;;4998557;23;20233;-79
2022/05/01 08:14:18;;;;;;;13.43;6.83;;;10.70;99.90;;;;;;4978289;28;20601;-80
2022/05/01 08:16:45;;;;;;;9.83;6.20;;;10.70;99.90;;;;;;4974976;28;20301;-83
2022/05/01 08:21:56;;;;;;;12.37;6.80;;;10.80;99.90;;;;;;4973825;28;20268;-80
2022/05/01 08:24:23;;;;;;;13.30;6.30;;;10.90;99.90;;;;;;4974964;28;20721;-83
2022/05/01 08:26:51;;;;;;;11.43;6.40;;;11.00;99.90;;;;;;4974639;28;20296;-84
2022/05/01 08:29:19;;;;;;;12.60;6.87;;;11.10;99.90;;;;;;4976002;28;20669;-82
2022/05/01 08:31:46;;;;;;;11.77;6.77;;;11.20;99.90;;;;;;4976191;28;20237;-81
2022/05/01 08:42:50;;;;;;;10.97;6.27;;;11.30;99.90;;;;;;4972962;28;20248;-81
2022/05/01 08:45:22;;;;;;;9.97;6.17;;;11.40;99.90;;;;;;4966337;28;20225;-80
2022/05/01 08:47:55;;;;;;;9.47;6.30;;;11.80;99.90;;;;;;4951627;28;20304;-81
2022/05/01 08:50:24;;;;;;;13.07;6.20;;;11.90;99.90;;;;;;4958129;28;20210;-79
2022/05/01 08:52:51;;;;;;;9.60;5.87;;;11.80;99.90;;;;;;4950915;28;20202;-80
2022/05/01 08:55:19;;;;;;;11.07;6.13;;;12.10;98.80;;;;;;4944941;28;20222;-80
2022/05/01 08:57:48;;;;;;;8.23;5.40;;;12.20;98.50;;;;;;4958332;28;20263;-80
2022/05/01 09:00:17;;;;;;;7.13;5.60;;;12.20;95.60;;;;;;4954715;28;20678;-80
2022/05/01 09:02:44;;;;;;;21.80;7.27;;;12.50;93.10;;;;;;4954110;28;20666;-80
2022/05/01 09:05:13;;;;;;;10.43;5.37;;;12.40;91.50;;;;;;4948089;28;20230;-82
2022/05/01 09:07:40;;;;;;;10.93;5.40;;;12.50;92.10;;;;;;4952243;28;20218;-81
2022/05/01 09:10:09;;;;;;;8.13;5.07;;;12.70;89.10;;;;;;4955043;28;20249;-80
2022/05/01 09:12:50;;;;;;;7.77;5.40;;;12.90;83.90;;;;;;4956085;28;20209;-81
2022/05/01 09:15:30;;;;;;;9.33;5.30;;;12.50;85.70;;;;;;4953541;28;20589;-81
2022/05/01 09:18:04;;;;;;;9.10;5.40;;;12.20;83.50;;;;;;4951115;28;20209;-83
2022/05/01 09:20:31;;;;;;;8.20;5.13;;;12.30;85.00;;;;;;4950129;28;20202;-84
2022/05/01 09:22:59;;;;;;;8.57;5.23;;;12.50;81.80;;;;;;4954682;28;20226;-82
2022/05/01 09:25:30;;;;;;;6.60;4.47;;;12.60;83.70;;;;;;4946915;28;20215;-78
2022/05/01 09:27:59;;;;;;;9.20;4.87;;;12.70;69.60;;;;;;4951550;28;20297;-81
2022/05/01 09:30:38;;;;;;;8.90;5.23;;;13.00;67.10;;;;;;4954757;28;20202;-79
2022/05/01 09:33:05;;;;;;;7.60;5.13;;;13.30;66.20;;;;;;4959445;28;20452;-80
2022/05/01 09:35:34;;;;;;;7.37;5.27;;;12.90;74.60;;;;;;4962632;28;20225;-80
2022/05/01 09:38:27;;;;;;;7.47;4.70;;;13.00;79.60;;;;;;4959823;28;20209;-81
2022/05/01 09:40:57;;;;;;;8.27;5.00;;;13.10;74.10;;;;;;4939914;28;20207;-81
2022/05/01 09:43:39;;;;;;;10.33;5.27;;;13.10;74.50;;;;;;4968060;28;20222;-83
2022/05/01 09:46:19;;;;;;;10.10;5.67;;;13.20;75.40;;;;;;4967255;29;20238;-83
2022/05/01 09:48:58;;;;;;;7.47;4.73;;;13.00;71.80;;;;;;4965409;28;20203;-81
2022/05/01 09:51:26;;;;;;;9.70;5.17;;;13.30;68.20;;;;;;4995300;28;20569;-82
2022/05/01 09:53:53;;;;;;;8.60;4.93;;;13.40;60.70;;;;;;4993032;28;20206;-82
2022/05/01 09:56:20;;;;;;;8.70;4.87;;;13.30;57.60;;;;;;4992653;28;20232;-82
2022/05/01 09:58:47;;;;;;;7.20;4.50;;;13.70;56.90;;;;;;4994215;28;20241;-81
2022/05/01 10:01:17;;;;;;;8.97;5.07;;;14.20;56.80;;;;;;4994084;28;20205;-82
2022/05/01 10:03:46;;;;;;;6.63;4.77;;;13.80;58.90;;;;;;4993440;28;20204;-82
2022/05/01 10:06:14;;;;;;;6.43;4.73;;;13.60;58.30;;;;;;4990912;28;20249;-81
2022/05/01 10:08:43;;;;;;;9.57;4.70;;;13.60;59.60;;;;;;4992358;28;20218;-82
2022/05/01 10:11:10;;;;;;;7.77;5.07;;;13.50;61.00;;;;;;4992058;28;20252;-81
2022/05/01 10:13:38;;;;;;;6.77;4.93;;;13.80;60.20;;;;;;4990449;28;20217;-82
2022/05/01 10:16:09;;;;;;;6.70;4.03;;;13.80;57.90;;;;;;4970010;28;20970;-81
2022/05/01 10:18:38;;;;;;;6.90;4.40;;;13.70;50.40;;;;;;4971312;29;20210;-82
2022/05/01 10:21:06;;;;;;;5.10;3.90;;;13.50;55.00;;;;;;4967481;29;20202;-81
2022/05/01 10:23:34;;;;;;;7.90;4.57;;;13.50;53.00;;;;;;4967179;28;20286;-82
2022/05/01 10:26:07;;;;;;;5.93;4.40;;;13.30;51.00;;;;;;4965905;29;20363;-82
2022/05/01 10:28:47;;;;;;;5.63;4.40;;;13.40;51.00;;;;;;4967221;29;20218;-81
2022/05/01 10:34:44;;;;;;;7.00;4.33;;;13.30;48.60;;;;;;4969038;29;20252;-82
2022/05/01 10:37:29;;;;;;;5.83;4.00;;;13.60;49.60;;;;;;4968202;29;20230;-81
2022/05/01 10:39:58;;;;;;;6.40;4.27;;;13.30;44.60;;;;;;4967382;29;20650;-81
2022/05/01 10:42:38;;;;;;;7.70;4.20;;;13.40;47.60;;;;;;4968175;28;20770;-81
2022/05/01 10:45:44;;;;;;;5.57;3.80;;;13.50;46.10;;;;;;4964079;29;20257;-81
2022/05/01 10:48:15;;;;;;;7.03;4.50;;;13.70;49.10;;;;;;4965895;29;20217;-81
2022/05/01 10:50:45;;;;;;;9.00;5.23;;;13.50;46.20;;;;;;4966628;29;20183;-81
2022/05/01 10:53:13;;;;;;;7.60;4.30;;;13.50;48.60;;;;;;4967036;28;20640;-80
2022/05/01 10:55:45;;;;;;;8.40;4.23;;;13.50;45.10;;;;;;4965157;28;20233;-81
2022/05/01 10:58:22;;;;;;;6.37;4.07;;;13.60;43.70;;;;;;4967013;29;20226;-81
2022/05/01 11:00:51;;;;;;;5.97;3.93;;;13.60;42.20;;;;;;4968923;29;20206;-82
2022/05/01 11:03:26;;;;;;;6.83;4.10;;;13.80;44.60;;;;;;4970720;29;20305;-82
2022/05/01 11:05:57;;;;;;;5.83;4.40;;;13.90;40.70;;;;;;4966746;29;20260;-80
2022/05/01 11:08:27;;;;;;;6.27;3.70;;;13.80;41.30;;;;;;4970220;29;20183;-81
2022/05/01 11:10:56;;;;;;;7.60;4.40;;;13.90;37.80;;;;;;4966475;28;20271;-82
2022/05/01 11:13:28;;;;;;;7.60;4.40;;;13.90;37.20;;;;;;4970361;29;20198;-81
2022/05/01 11:15:55;;;;;;;7.60;4.53;;;14.30;38.10;;;;;;4969766;29;20214;-82
2022/05/01 11:18:29;;;;;;;8.13;4.10;;;14.50;36.10;;;;;;4968932;29;20216;-82
2022/05/01 11:21:40;;;;;;;6.33;3.80;;;15.10;34.10;;;;;;4968733;29;20221;-82
2022/05/01 11:24:08;;;;;;;6.33;3.83;;;15.60;29.10;;;;;;4968597;29;20244;-81
2022/05/01 11:26:35;;;;;;;5.77;4.20;;;15.10;30.00;;;;;;4968029;29;20210;-82
2022/05/01 11:29:13;;;;;;;4.73;3.90;;;15.00;28.90;;;;;;4967047;29;20229;-81
2022/05/01 11:31:48;;;;;;;7.93;4.23;;;15.00;31.10;;;;;;4967378;29;20214;-81
2022/05/01 11:34:48;;;;;;;10.03;4.27;;;14.90;30.20;;;;;;4967574;28;20230;-82
2022/05/01 11:37:16;;;;;;;7.13;4.27;;;15.00;29.60;;;;;;4924695;28;20649;-81
2022/05/01 11:40:20;;;;;;;6.20;3.97;;;15.20;27.90;;;;;;4971430;28;20214;-82
2022/05/01 11:42:47;;;;;;;6.47;4.23;;;15.30;29.40;;;;;;4969612;28;20246;-82
2022/05/01 11:45:14;;;;;;;6.40;4.07;;;15.10;28.90;;;;;;4968122;29;20241;-82
2022/05/01 11:47:44;;;;;;;6.87;4.07;;;15.20;26.30;;;;;;4970930;28;20273;-81
2022/05/01 11:50:21;;;;;;;6.82;4.00;;;15.30;24.90;;;;;;4970298;28;20216;-81
2022/05/01 11:52:51;;;;;;;10.53;4.13;;;15.40;28.90;;;;;;4969983;29;20225;-82
2022/05/01 12:02:24;;;;;;;6.70;4.43;;;16.20;24.80;;;;;;4968753;29;20230;-82
2022/05/01 12:03:37;;;;;;;6.43;4.17;;;15.90;25.00;;;;;;4963485;28;20208;-81
2022/05/01 12:06:04;;;;;;;5.05;3.85;;;16.30;22.40;;;;;;4966995;29;20233;-82
2022/05/01 12:08:32;;;;;;;7.22;4.03;;;15.90;21.70;;;;;;4970644;28;20274;-81
2022/05/01 12:10:59;;;;;;;6.32;4.18;;;15.20;21.50;;;;;;4971374;28;20210;-82
2022/05/01 12:13:28;;;;;;;6.77;4.50;;;15.40;22.70;;;;;;4970393;29;20218;-80
2022/05/01 12:15:56;;;;;;;5.13;3.95;;;15.80;22.90;;;;;;4969779;29;20261;-80
2022/05/01 12:18:24;;;;;;;5.60;3.92;;;16.20;21.90;;;;;;4969607;29;20261;-80
2022/05/01 12:20:51;;;;;;;6.40;4.20;;;15.70;20.20;;;;;;4965342;29;20705;-80
2022/05/01 12:23:20;;;;;;;7.70;4.60;;;15.30;22.30;;;;;;4969611;29;20293;-81
2022/05/01 12:25:50;;;;;;;7.13;4.00;;;15.30;22.60;;;;;;4968185;28;20226;-81
2022/05/01 12:28:20;;;;;;;5.30;4.20;;;15.00;20.70;;;;;;4972702;29;20916;-81
2022/05/01 12:30:50;;;;;;;6.97;4.72;;;15.80;20.50;;;;;;4982299;28;20273;-81
2022/05/01 12:33:22;;;;;;;6.10;4.40;;;16.50;20.20;;;;;;4980358;28;20201;-81
2022/05/01 12:35:58;;;;;;;5.50;3.87;;;15.90;17.80;;;;;;4966980;28;20272;-81
2022/05/01 12:38:27;;;;;;;7.45;4.38;;;15.70;19.20;;;;;;4975380;28;20208;-82
2022/05/01 12:43:55;;;;;;;7.07;3.97;;;15.70;16.90;;;;;;4949052;29;20287;-83
2022/05/01 12:46:27;;;;;;;5.18;4.20;;;15.60;18.20;;;;;;4950577;29;20294;-83
2022/05/01 12:48:56;;;;;;;6.78;3.80;;;16.40;15.10;;;;;;4953783;29;20187;-82
2022/05/01 12:51:24;;;;;;;8.07;4.20;;;16.40;16.00;;;;;;4951852;29;20227;-82
2022/05/01 12:54:06;;;;;;;5.93;4.10;;;16.60;16.40;;;;;;4957885;28;20194;-85
2022/05/01 12:56:35;;;;;;;5.95;3.97;;;15.90;12.10;;;;;;4978647;28;20273;-82
2022/05/01 12:59:27;;;;;;;7.68;4.50;;;15.80;17.40;;;;;;4969726;29;20206;-83
2022/05/01 13:01:55;;;;;;;6.20;3.63;;;15.80;19.00;;;;;;4957851;29;20207;-83
2022/05/01 13:04:25;;;;;;;5.55;4.20;;;16.50;18.90;;;;;;4978755;28;20222;-83
2022/05/01 13:06:52;;;;;;;7.80;4.35;;;15.80;17.70;;;;;;4993002;28;20233;-83
2022/05/01 13:09:19;;;;;;;5.47;4.30;;;15.60;16.10;;;;;;4992760;28;20213;-83
2022/05/01 13:12:02;;;;;;;6.55;4.03;;;15.80;16.40;;;;;;4993366;28;20228;-83
2022/05/01 13:14:33;;;;;;;6.68;4.18;;;16.00;17.00;;;;;;4994188;28;20241;-83
2022/05/01 13:17:11;;;;;;;7.63;4.85;;;16.00;14.80;;;;;;4996748;28;20218;-82
2022/05/01 13:19:39;;;;;;;6.13;4.93;;;15.60;13.20;;;;;;4997114;28;20216;-82
2022/05/01 13:22:07;;;;;;;6.03;4.50;;;15.60;12.60;;;;;;4997204;28;20201;-84
2022/05/01 13:24:36;;;;;;;7.10;4.38;;;16.30;10.80;;;;;;4997903;28;20225;-82
2022/05/01 13:27:06;;;;;;;7.25;4.40;;;16.10;11.70;;;;;;4997152;28;20243;-82
2022/05/01 13:29:35;;;;;;;6.97;4.38;;;15.70;12.70;;;;;;4997363;28;20281;-82
2022/05/01 13:32:05;;;;;;;5.90;4.20;;;15.60;13.20;;;;;;4997830;28;20216;-82
2022/05/01 13:34:32;;;;;;;6.78;4.40;;;15.70;13.40;;;;;;4997475;28;20244;-82